Time;durP1;ratioP1;P1;durP2;ratioP2;P2;SDS_P1;SDS_P2;PMS_P1;PMS_P2;Temp;Humidity;BMP_temperature;BMP_pressure;BME280_temperature;BME280_humidity;BME280_pressure;Samples;Min_cycle;Max_cycle;Signal;HPM_P1;HPM_P2
2023/10/13 00:00:47;;;;;;;30.85;19.20;;;;;;;19.15;81.57;97990.47;4866582;29;20060;-81
2023/10/13 00:03:32;;;;;;;31.40;18.67;;;;;;;19.17;80.95;97977.69;4873837;29;20147;-81
2023/10/13 00:06:18;;;;;;;33.67;19.67;;;;;;;19.15;80.80;97974.50;4874850;29;20601;-80
2023/10/13 00:09:03;;;;;;;28.58;17.92;;;;;;;19.30;80.92;97970.16;4874901;29;20100;-83
2023/10/13 00:11:47;;;;;;;29.88;16.83;;;;;;;19.22;81.05;97959.00;4872072;29;20051;-81
2023/10/13 00:14:34;;;;;;;27.35;17.00;;;;;;;19.15;81.66;97966.53;4873936;29;20039;-81
2023/10/13 00:17:24;;;;;;;25.80;16.40;;;;;;;19.21;81.29;97952.09;4872042;29;20129;-82
2023/10/13 00:20:52;;;;;;;26.42;16.80;;;;;;;19.11;81.71;97941.56;4864590;29;20148;-82
2023/10/13 00:23:22;;;;;;;32.00;18.05;;;;;;;19.00;82.07;97934.72;4870209;29;20116;-82
2023/10/13 00:26:09;;;;;;;27.38;15.32;;;;;;;18.94;82.49;97942.72;4872383;29;20101;-82
2023/10/13 00:29:08;;;;;;;25.88;14.85;;;;;;;19.05;82.52;97932.00;4873589;29;20518;-83
2023/10/13 00:31:52;;;;;;;27.27;15.23;;;;;;;18.88;82.83;97927.88;4871212;29;20048;-83
2023/10/13 00:34:37;;;;;;;23.88;15.13;;;;;;;18.83;83.46;97914.59;4873430;29;20166;-83
2023/10/13 00:37:28;;;;;;;25.13;15.35;;;;;;;18.87;82.72;97889.06;4875647;29;20108;-84
2023/10/13 00:48:52;;;;;;;23.83;15.05;;;;;;;19.03;83.62;97862.34;4878784;29;20048;-84
2023/10/13 00:51:40;;;;;;;29.17;14.30;;;;;;;19.36;83.46;97882.03;4875614;29;20051;-84
2023/10/13 00:54:26;;;;;;;21.27;13.23;;;;;;;19.20;84.13;97880.59;4877751;29;20104;-84
2023/10/13 00:57:26;;;;;;;21.35;13.35;;;;;;;19.14;84.55;97869.19;4874857;29;20089;-84
2023/10/13 01:00:24;;;;;;;19.80;12.15;;;;;;;18.82;85.01;97859.84;4877740;29;20061;-84
2023/10/13 01:03:08;;;;;;;19.50;12.48;;;;;;;19.16;85.17;97856.41;4877564;29;20044;-85
2023/10/13 01:05:58;;;;;;;21.40;11.63;;;;;;;19.11;84.68;97833.28;4871479;29;20104;-84
2023/10/13 01:08:45;;;;;;;17.40;9.82;;;;;;;19.16;84.92;97837.78;4877469;29;20072;-86
2023/10/13 01:11:31;;;;;;;14.65;9.60;;;;;;;19.21;85.11;97835.06;4873375;29;20077;-84
2023/10/13 01:14:17;;;;;;;17.92;9.43;;;;;;;19.03;85.27;97817.16;4876692;29;20531;-84
2023/10/13 01:17:03;;;;;;;13.75;8.35;;;;;;;19.16;85.79;97819.16;4877553;29;20166;-84
2023/10/13 01:19:48;;;;;;;13.43;7.85;;;;;;;19.23;85.69;97814.28;4875578;29;20091;-84
2023/10/13 01:22:33;;;;;;;11.50;7.30;;;;;;;19.27;85.75;97804.69;4877244;29;20534;-83
2023/10/13 01:25:19;;;;;;;9.40;6.32;;;;;;;19.31;85.64;97802.25;4876270;29;20044;-85
2023/10/13 01:28:04;;;;;;;9.57;5.00;;;;;;;19.30;85.48;97766.06;4876929;29;20071;-85
2023/10/13 01:30:51;;;;;;;7.53;4.53;;;;;;;19.51;85.04;97753.34;4875640;29;20052;-83
2023/10/13 01:33:35;;;;;;;5.93;4.03;;;;;;;19.39;85.57;97761.72;4877140;29;20125;-84
2023/10/13 01:36:21;;;;;;;4.93;3.78;;;;;;;19.64;85.03;97753.69;4875121;29;20514;-83
2023/10/13 01:39:05;;;;;;;3.92;3.17;;;;;;;19.69;85.57;97753.66;4873081;29;20064;-84
2023/10/13 01:41:55;;;;;;;7.57;3.55;;;;;;;19.54;85.62;97733.31;4875670;29;20059;-83
2023/10/13 01:44:39;;;;;;;3.85;2.80;;;;;;;19.64;85.65;97737.72;4879997;29;20100;-84
2023/10/13 01:47:23;;;;;;;4.07;2.80;;;;;;;19.64;85.58;97724.41;4875465;29;20068;-84
2023/10/13 01:50:18;;;;;;;4.15;3.08;;;;;;;19.66;85.68;97716.97;4878326;29;20423;-84
2023/10/13 01:53:11;;;;;;;4.00;3.40;;;;;;;19.74;85.81;97723.50;4880139;29;20056;-84
2023/10/13 01:55:58;;;;;;;4.55;3.50;;;;;;;19.87;85.08;97709.47;4879351;29;20097;-85
2023/10/13 01:58:42;;;;;;;6.38;4.80;;;;;;;19.72;85.28;97688.38;4881619;29;20514;-84
2023/10/13 02:01:34;;;;;;;5.28;4.00;;;;;;;19.88;85.57;97696.97;4880775;29;20491;-85
2023/10/13 02:04:21;;;;;;;7.95;5.45;;;;;;;19.79;85.40;97691.50;4877621;29;20060;-85
2023/10/13 02:07:08;;;;;;;8.63;5.63;;;;;;;19.76;85.17;97679.53;4878328;29;20044;-85
2023/10/13 02:09:55;;;;;;;9.50;6.07;;;;;;;19.83;85.46;97681.84;4877820;29;20048;-84
2023/10/13 02:12:42;;;;;;;12.10;7.90;;;;;;;19.77;85.45;97673.13;4879348;29;20096;-84
2023/10/13 02:15:26;;;;;;;10.05;6.82;;;;;;;19.69;85.47;97663.16;4880574;29;20043;-85
2023/10/13 02:18:21;;;;;;;10.60;7.18;;;;;;;19.78;85.40;97656.09;4878538;29;20511;-83
2023/10/13 02:21:14;;;;;;;11.88;8.00;;;;;;;19.79;85.46;97646.22;4878683;29;20080;-84
2023/10/13 02:24:03;;;;;;;10.27;6.63;;;;;;;19.73;85.61;97632.22;4879927;29;20100;-85
2023/10/13 02:26:47;;;;;;;11.02;6.38;;;;;;;19.79;85.86;97624.94;4879700;29;20044;-84
2023/10/13 02:29:38;;;;;;;7.63;5.63;;;;;;;19.82;85.95;97630.44;4876551;29;20048;-83
2023/10/13 02:32:23;;;;;;;7.70;6.03;;;;;;;19.89;85.74;97621.31;4879699;29;20108;-83
2023/10/13 02:35:15;;;;;;;7.60;5.50;;;;;;;19.89;85.83;97608.00;4879734;29;20044;-84
2023/10/13 02:38:10;;;;;;;7.55;5.47;;;;;;;20.03;85.40;97595.53;4879495;29;20551;-84
2023/10/13 02:40:55;;;;;;;9.45;5.70;;;;;;;20.10;85.34;97584.50;4872827;29;20052;-84
2023/10/13 02:43:39;;;;;;;8.13;5.05;;;;;;;20.02;85.69;97577.19;4872638;29;20052;-83
2023/10/13 02:46:30;;;;;;;7.57;5.15;;;;;;;20.02;85.69;97575.31;4879085;29;20455;-84
2023/10/13 02:49:19;;;;;;;10.38;5.07;;;;;;;19.96;86.01;97563.97;4880113;29;20133;-82
2023/10/13 02:52:08;;;;;;;7.35;4.55;;;;;;;19.93;86.19;97550.44;4877218;29;20375;-84
2023/10/13 02:54:52;;;;;;;6.25;4.85;;;;;;;19.97;86.01;97544.25;4878461;29;20057;-84
2023/10/13 02:57:36;;;;;;;7.28;4.93;;;;;;;19.89;86.12;97509.50;4879076;29;20413;-83
2023/10/13 03:00:22;;;;;;;6.80;5.18;;;;;;;20.06;85.93;97525.72;4879227;29;20064;-84
2023/10/13 03:03:07;;;;;;;7.05;5.20;;;;;;;20.09;85.77;97511.00;4877493;29;20052;-83
2023/10/13 03:05:51;;;;;;;7.40;5.00;;;;;;;20.09;85.61;97503.03;4878459;29;20123;-83
2023/10/13 03:08:37;;;;;;;8.68;6.25;;;;;;;20.08;85.87;97494.25;4879779;29;20100;-83
2023/10/13 03:11:21;;;;;;;7.90;5.78;;;;;;;19.98;85.95;97483.78;4876583;29;20048;-83
2023/10/13 03:14:07;;;;;;;7.32;5.53;;;;;;;20.03;86.10;97470.38;4878887;29;20579;-83
2023/10/13 03:17:02;;;;;;;9.45;6.28;;;;;;;19.95;86.09;97463.06;4876674;29;20185;-84
2023/10/13 03:19:49;;;;;;;6.32;5.20;;;;;;;19.90;86.01;97441.84;4877354;29;20187;-82
2023/10/13 03:22:34;;;;;;;6.82;5.25;;;;;;;19.93;86.21;97436.72;4875773;29;20048;-83
2023/10/13 03:25:42;;;;;;;8.13;5.47;;;;;;;19.97;86.36;97429.75;4877332;29;20067;-83
2023/10/13 03:28:33;;;;;;;9.85;5.55;;;;;;;19.90;86.33;97409.91;4879146;29;20056;-83
2023/10/13 03:31:19;;;;;;;9.98;5.95;;;;;;;19.87;86.50;97402.50;4869241;29;20047;-83
2023/10/13 03:34:05;;;;;;;10.73;5.15;;;;;;;19.95;86.31;97385.84;4875534;29;20063;-83
2023/10/13 03:36:56;;;;;;;7.18;5.20;;;;;;;20.00;86.45;97380.41;4878054;29;20555;-84
2023/10/13 03:39:44;;;;;;;6.57;5.20;;;;;;;19.92;86.30;97371.25;4879494;29;20052;-84
2023/10/13 03:42:32;;;;;;;5.65;4.53;;;;;;;19.96;86.50;97369.59;4869067;29;20048;-84
2023/10/13 03:45:18;;;;;;;7.15;5.20;;;;;;;20.04;86.79;97375.28;4877646;29;20060;-84
2023/10/13 03:48:11;;;;;;;9.52;6.82;;;;;;;19.97;86.51;97354.38;4877967;29;20056;-84
2023/10/13 03:51:03;;;;;;;11.80;6.60;;;;;;;20.17;86.18;97355.03;4877502;29;20571;-84
2023/10/13 03:53:53;;;;;;;11.32;7.90;;;;;;;20.04;86.45;97344.09;4873288;29;20384;-84
2023/10/13 03:56:40;;;;;;;11.98;8.23;;;;;;;20.06;86.43;97331.31;4874044;29;20079;-84
2023/10/13 03:59:34;;;;;;;19.08;9.80;;;;;;;20.07;86.63;97327.56;4878927;29;20104;-83
2023/10/13 04:02:21;;;;;;;;;;;;;;;20.16;86.52;97321.50;4877507;29;20056;-84
2023/10/13 04:05:09;;;;;;;14.68;8.10;;;;;;;20.15;86.51;97306.63;4876586;29;19930;-84
2023/10/13 04:14:55;;;;;;;10.65;6.57;;;;;;;20.17;86.88;97289.25;4875231;29;20116;-84
2023/10/13 04:17:29;;;;;;;12.63;6.88;;;;;;;20.15;87.19;97272.00;4878584;29;20048;-83
2023/10/13 04:20:19;;;;;;;10.10;6.60;;;;;;;20.16;86.81;97268.22;4877146;29;20079;-83
2023/10/13 04:23:19;;;;;;;11.15;6.28;;;;;;;20.15;86.89;97261.34;4863346;29;20159;-83
2023/10/13 04:26:09;;;;;;;10.88;6.95;;;;;;;20.14;86.90;97265.09;4877099;29;20071;-83
2023/10/13 04:28:53;;;;;;;11.10;6.20;;;;;;;20.09;87.30;97253.47;4877992;29;20118;-83
2023/10/13 04:31:46;;;;;;;;;;;;;;;20.27;86.69;97245.63;4873792;29;20455;-84
2023/10/13 04:34:38;;;;;;;9.98;5.90;;;;;;;20.22;87.15;97243.84;4874848;29;19966;-84
2023/10/13 04:37:39;;;;;;;10.18;6.32;;;;;;;20.21;86.89;97230.81;4877002;29;20059;-83
2023/10/13 04:40:28;;;;;;;12.70;6.43;;;;;;;20.23;86.84;97210.00;4874547;29;20060;-84
2023/10/13 04:43:33;;;;;;;9.02;5.82;;;;;;;20.26;86.80;97207.50;4877707;29;20056;-84
2023/10/13 04:46:35;;;;;;;7.65;5.47;;;;;;;20.23;86.75;97199.34;4877693;29;20173;-84
2023/10/13 04:49:28;;;;;;;9.25;5.68;;;;;;;20.23;87.04;97184.16;4876400;29;20501;-84
2023/10/13 04:52:26;;;;;;;10.35;5.55;;;;;;;20.28;86.91;97177.91;4875723;29;20092;-83
2023/10/13 04:55:24;;;;;;;11.35;6.20;;;;;;;20.29;87.11;97171.50;4878002;29;20043;-83
2023/10/13 05:01:49;;;;;;;14.75;7.38;;;;;;;20.28;86.96;97159.28;4877546;29;20104;-83
2023/10/13 05:05:10;;;;;;;10.05;6.07;;;;;;;20.30;86.76;97157.09;4877456;29;20407;-83
2023/10/13 05:44:37;;;;;;;33.40;8.15;;;;;;;20.08;87.17;97101.94;4875237;29;20079;-83
2023/10/13 06:29:34;;;;;;;11.02;7.30;;;;;;;20.28;87.93;97039.38;4878762;29;20060;-83
2023/10/13 06:32:19;;;;;;;9.98;6.95;;;;;;;20.34;87.87;97027.50;4876610;29;20040;-82
2023/10/13 06:35:07;;;;;;;9.23;6.93;;;;;;;20.26;88.30;97017.59;4878706;29;20032;-85
2023/10/13 06:37:51;;;;;;;8.77;6.35;;;;;;;20.52;87.82;97033.66;4879490;29;20048;-83
2023/10/13 06:40:36;;;;;;;9.00;6.45;;;;;;;20.55;88.14;97024.25;4880574;29;20055;-88
2023/10/13 06:43:23;;;;;;;10.15;6.13;;;;;;;20.64;88.20;97024.28;4883216;29;20420;-84
2023/10/13 06:46:14;;;;;;;8.20;5.57;;;;;;;20.53;88.01;97021.13;4877609;29;20043;-84
2023/10/13 06:48:59;;;;;;;8.52;5.88;;;;;;;20.56;87.76;97017.84;4875978;29;20416;-87
2023/10/13 06:51:46;;;;;;;7.50;5.68;;;;;;;20.70;87.65;97044.38;4870628;29;20052;-88
2023/10/13 06:54:33;;;;;;;10.82;7.15;;;;;;;20.79;87.55;97060.38;4874254;29;20044;-87
2023/10/13 06:57:20;;;;;;;7.38;6.00;;;;;;;20.79;87.66;97039.84;4883907;29;20467;-88
2023/10/13 07:00:08;;;;;;;9.15;6.53;;;;;;;20.59;88.18;96985.22;4884612;29;20156;-88
2023/10/13 07:02:52;;;;;;;8.27;5.85;;;;;;;20.72;88.37;97012.84;4881494;29;20116;-85
2023/10/13 07:05:38;;;;;;;8.27;5.57;;;;;;;20.98;87.81;97020.16;4875466;29;20067;-82
2023/10/13 07:08:23;;;;;;;7.07;5.35;;;;;;;20.89;87.92;97004.13;4877969;29;20083;-87
2023/10/13 07:11:17;;;;;;;7.45;4.70;;;;;;;20.84;88.58;97006.97;4877374;29;20391;-86
2023/10/13 07:14:16;;;;;;;5.40;3.88;;;;;;;21.08;88.74;97006.47;4878222;29;20092;-85
2023/10/13 07:17:03;;;;;;;5.28;4.10;;;;;;;21.24;88.08;97020.16;4880376;29;20059;-85
2023/10/13 07:19:53;;;;;;;5.70;4.13;;;;;;;21.24;88.08;97025.50;4866436;29;20132;-85
2023/10/13 07:22:39;;;;;;;4.80;4.07;;;;;;;21.43;88.01;97037.72;4875954;29;20177;-85
2023/10/13 07:25:25;;;;;;;6.50;4.13;;;;;;;21.45;87.36;97016.03;4878757;29;20044;-84
2023/10/13 07:28:10;;;;;;;6.18;4.22;;;;;;;21.42;87.70;97030.81;4882387;29;20093;-84
2023/10/13 07:33:41;;;;;;;4.20;3.53;;;;;;;21.43;88.21;97059.06;4878049;29;20071;-84
2023/10/13 07:36:33;;;;;;;3.47;2.90;;;;;;;21.19;88.91;97038.97;4877218;29;20124;-84
2023/10/13 07:39:28;;;;;;;5.03;3.20;;;;;;;21.47;88.41;97022.66;4878228;29;20048;-88
2023/10/13 07:42:21;;;;;;;4.47;2.95;;;;;;;21.57;88.41;97015.41;4867207;29;20136;-82
2023/10/13 07:45:07;;;;;;;3.88;2.40;;;;;;;21.50;89.03;97021.22;4876265;29;20040;-84
2023/10/13 07:47:51;;;;;;;3.78;2.60;;;;;;;21.62;88.51;97060.63;4879066;29;20132;-82
2023/10/13 07:50:36;;;;;;;2.72;2.53;;;;;;;21.61;88.93;97043.03;4876020;29;20044;-84
2023/10/13 07:53:22;;;;;;;6.95;2.30;;;;;;;21.72;88.32;97028.28;4878358;29;20044;-84
2023/10/13 07:56:13;;;;;;;4.00;2.22;;;;;;;21.69;88.54;97042.28;4872534;29;20055;-83
2023/10/13 07:59:00;;;;;;;3.83;2.55;;;;;;;21.58;88.01;97070.34;4871878;29;20048;-85
2023/10/13 08:01:45;;;;;;;4.47;2.72;;;;;;;21.47;89.42;97105.38;4877875;29;20563;-83
2023/10/13 08:04:29;;;;;;;4.22;3.53;;;;;;;21.57;90.18;97063.44;4876108;29;20506;-86
2023/10/13 08:07:13;;;;;;;12.50;8.52;;;;;;;21.23;91.07;97087.94;4872708;29;20851;-83
2023/10/13 08:09:59;;;;;;;12.63;8.02;;;;;;;21.33;90.66;97100.19;4878502;29;20048;-84
2023/10/13 08:12:44;;;;;;;11.80;7.75;;;;;;;21.66;90.11;97101.66;4877158;29;20507;-83
2023/10/13 08:15:33;;;;;;;12.75;8.65;;;;;;;21.34;90.57;97076.97;4876014;29;20116;-85
2023/10/13 08:18:24;;;;;;;7.60;5.50;;;;;;;21.42;91.49;97072.72;4874711;29;20048;-84
2023/10/13 08:21:16;;;;;;;4.85;3.17;;;;;;;21.10;91.09;97054.19;4876749;29;20120;-83
2023/10/13 08:24:06;;;;;;;4.30;2.70;;;;;;;21.49;90.49;97044.47;4875367;29;20052;-84
2023/10/13 08:32:56;;;;;;;4.25;2.40;;;;;;;21.72;89.81;97054.22;4872517;29;20047;-84
2023/10/13 08:35:54;;;;;;;8.50;4.50;;;;;;;21.63;89.87;97060.31;4873472;29;20116;-83
2023/10/13 08:38:50;;;;;;;19.02;10.77;;;;;;;21.91;89.51;97062.66;4877714;29;20076;-85
2023/10/13 08:41:53;;;;;;;28.38;16.55;;;;;;;22.09;89.19;97066.06;4877322;29;20407;-84
2023/10/13 08:44:45;;;;;;;23.83;14.93;;;;;;;22.27;88.03;97047.28;4876079;29;20044;-84
2023/10/13 08:47:36;;;;;;;21.92;13.23;;;;;;;22.39;88.13;97044.72;4877875;29;20543;-83
2023/10/13 08:54:08;;;;;;;15.90;9.90;;;;;;;22.54;87.81;97034.63;4877806;29;20088;-84
2023/10/13 08:56:47;;;;;;;14.47;9.87;;;;;;;22.72;86.58;97027.28;4878324;29;20088;-83
2023/10/13 08:59:52;;;;;;;12.55;7.07;;;;;;;22.33;86.48;97037.22;4876008;29;20056;-85
2023/10/13 09:05:51;;;;;;;9.15;5.75;;;;;;;22.87;86.10;97041.97;4875128;29;20052;-82
2023/10/13 09:08:36;;;;;;;14.15;8.68;;;;;;;22.51;86.45;97040.63;4875456;29;20048;-84
2023/10/13 09:11:26;;;;;;;15.45;9.43;;;;;;;22.88;86.51;97022.16;4875737;29;20048;-82
2023/10/13 09:14:32;;;;;;;18.08;10.55;;;;;;;22.95;85.70;97035.78;4876672;29;20502;-83
2023/10/13 09:23:09;;;;;;;12.52;6.82;;;;;;;23.39;84.35;97085.56;4877033;29;20108;-82
2023/10/13 09:25:53;;;;;;;16.52;10.23;;;;;;;23.14;85.13;97061.31;4873923;29;20043;-82
2023/10/13 09:28:37;;;;;;;20.35;12.38;;;;;;;23.43;83.98;97054.34;4889666;29;20044;-84
2023/10/13 09:31:26;;;;;;;23.67;14.30;;;;;;;23.61;83.97;97079.06;4876586;29;20052;-83
2023/10/13 09:34:10;;;;;;;25.20;14.40;;;;;;;23.70;83.79;97070.97;4876714;29;20128;-85
2023/10/13 09:36:58;;;;;;;26.38;15.00;;;;;;;24.13;83.40;97092.31;4875435;29;20048;-82
2023/10/13 09:39:52;;;;;;;22.70;14.48;;;;;;;24.16;82.19;97099.69;4871342;29;20507;-85
2023/10/13 09:42:38;;;;;;;19.40;13.88;;;;;;;24.04;82.17;97095.06;4876309;29;20071;-84
2023/10/13 09:45:40;;;;;;;19.13;10.80;;;;;;;24.09;82.63;97108.28;4877682;29;20132;-84
2023/10/13 09:48:40;;;;;;;10.75;8.30;;;;;;;23.89;81.54;97116.03;4877686;29;20116;-84
2023/10/13 09:51:24;;;;;;;9.48;6.60;;;;;;;23.76;82.97;97114.41;4875416;29;20420;-84
2023/10/13 09:54:22;;;;;;;7.68;6.18;;;;;;;24.22;81.46;97111.78;4877414;29;20055;-83
2023/10/13 09:57:16;;;;;;;4.28;3.45;;;;;;;23.58;81.93;97122.56;4874764;29;20527;-85
2023/10/13 10:00:26;;;;;;;3.20;2.90;;;;;;;23.93;81.69;97132.19;4876775;29;20040;-84
2023/10/13 10:06:27;;;;;;;2.13;1.80;;;;;;;23.64;82.96;97141.91;4880041;29;20122;-83
2023/10/13 10:09:11;;;;;;;1.92;1.70;;;;;;;24.05;82.41;97150.25;4875123;29;20573;-82
2023/10/13 10:12:18;;;;;;;1.77;1.52;;;;;;;24.24;80.76;97163.16;4871245;29;20093;-90
2023/10/13 10:18:27;;;;;;;0.98;0.93;;;;;;;24.07;81.11;97166.78;4880615;29;20052;-83
2023/10/13 10:21:15;;;;;;;1.23;1.13;;;;;;;23.61;81.62;97170.13;4878152;29;20052;-84
2023/10/13 10:23:59;;;;;;;1.30;1.20;;;;;;;23.57;81.62;97157.69;4874185;29;20051;-84
2023/10/13 10:26:56;;;;;;;1.58;1.10;;;;;;;23.81;80.67;97157.06;4877826;29;20060;-82
2023/10/13 10:29:53;;;;;;;1.00;1.00;;;;;;;23.56;80.09;97156.13;4873371;29;20108;-83
2023/10/13 10:32:40;;;;;;;1.40;1.30;;;;;;;23.14;81.00;97162.22;4879606;29;20100;-83
2023/10/13 10:35:34;;;;;;;2.45;1.25;;;;;;;23.14;81.72;97152.28;4872977;29;20040;-84
2023/10/13 10:38:32;;;;;;;1.05;0.95;;;;;;;23.28;80.01;97162.78;4875998;29;20097;-84
2023/10/13 10:41:24;;;;;;;1.05;1.05;;;;;;;23.64;79.37;97164.09;4877085;29;20040;-84
2023/10/13 10:45:05;;;;;;;1.15;1.05;;;;;;;23.59;79.00;97171.56;4879351;29;20092;-85
2023/10/13 10:47:36;;;;;;;1.00;1.00;;;;;;;22.67;79.39;97182.56;4875614;29;20056;-83
2023/10/13 10:50:47;;;;;;;2.53;1.30;;;;;;;23.74;78.91;97179.00;4878429;29;20100;-83
2023/10/13 10:53:37;;;;;;;1.48;1.15;;;;;;;23.45;78.10;97187.88;4877902;29;20064;-83
2023/10/13 10:56:36;;;;;;;1.20;1.10;;;;;;;23.64;77.38;97193.56;4880340;29;20522;-83
2023/10/13 10:59:22;;;;;;;0.90;0.85;;;;;;;23.65;77.14;97178.28;4880029;29;20107;-84
2023/10/13 11:02:07;;;;;;;0.70;0.70;;;;;;;23.48;76.67;97193.38;4879431;29;20498;-85
2023/10/13 11:04:51;;;;;;;0.70;0.70;;;;;;;23.86;76.15;97191.66;4877157;29;20051;-84
2023/10/13 11:07:36;;;;;;;0.70;0.70;;;;;;;23.72;75.74;97191.94;4878419;29;20096;-85
2023/10/13 11:10:27;;;;;;;0.77;0.77;;;;;;;23.75;74.83;97169.84;4879611;29;20049;-86
2023/10/13 11:13:21;;;;;;;1.85;0.82;;;;;;;23.65;74.14;97171.03;4878046;29;20495;-84
2023/10/13 11:16:07;;;;;;;0.80;0.80;;;;;;;23.45;74.74;97163.78;4879088;29;20119;-84
2023/10/13 11:19:02;;;;;;;0.70;0.70;;;;;;;23.37;75.10;97170.75;4879107;29;20044;-85
2023/10/13 11:21:49;;;;;;;0.75;0.70;;;;;;;23.06;75.64;97169.19;4877194;29;20070;-85
2023/10/13 11:24:40;;;;;;;1.42;0.80;;;;;;;23.25;75.34;97185.63;4874013;29;20542;-86
2023/10/13 11:30:51;;;;;;;1.13;0.80;;;;;;;23.75;74.73;97191.28;4883564;29;20134;-85
2023/10/13 11:33:36;;;;;;;1.40;0.82;;;;;;;23.56;73.52;97189.06;4877519;29;20133;-84
2023/10/13 11:36:24;;;;;;;0.80;0.80;;;;;;;22.73;75.18;97191.19;4879512;29;20092;-85
2023/10/13 11:39:09;;;;;;;2.63;1.05;;;;;;;22.13;76.14;97191.00;4874677;29;20052;-85
2023/10/13 11:41:54;;;;;;;0.80;0.80;;;;;;;22.44;75.43;97177.41;4877894;29;20079;-85
2023/10/13 11:44:43;;;;;;;0.95;0.93;;;;;;;22.57;75.45;97178.34;4870721;29;20044;-85
2023/10/13 11:47:47;;;;;;;3.58;1.17;;;;;;;22.24;76.58;97178.88;4877838;29;20403;-84
2023/10/13 11:50:35;;;;;;;2.60;1.20;;;;;;;21.92;76.70;97199.66;4879012;29;20052;-85
2023/10/13 11:53:19;;;;;;;2.10;1.40;;;;;;;20.99;77.37;97189.72;4879047;29;20459;-86
2023/10/13 11:56:09;;;;;;;1.98;1.65;;;;;;;21.32;77.56;97212.56;4879565;29;20092;-86
2023/10/13 11:58:53;;;;;;;2.10;1.90;;;;;;;21.63;76.98;97217.03;4879620;29;20087;-87
2023/10/13 12:04:41;;;;;;;2.67;2.30;;;;;;;21.17;78.08;97221.81;4877603;29;20132;-86
2023/10/13 12:07:48;;;;;;;2.40;2.20;;;;;;;20.93;79.98;97225.63;4880043;29;20052;-84
2023/10/13 12:10:49;;;;;;;2.17;1.98;;;;;;;21.17;79.25;97200.47;4879344;29;20064;-86
2023/10/13 12:13:33;;;;;;;1.95;1.63;;;;;;;20.73;78.90;97209.03;4877910;29;20048;-85
2023/10/13 12:16:19;;;;;;;1.30;1.20;;;;;;;20.06;82.04;97224.78;4875738;29;20044;-85
2023/10/13 12:19:08;;;;;;;1.98;0.90;;;;;;;20.39;83.48;97245.06;4877854;29;20167;-86
2023/10/13 12:21:55;;;;;;;4.18;1.00;;;;;;;20.29;82.68;97206.13;4877945;29;20113;-86
2023/10/13 12:27:23;;;;;;;2.17;0.70;;;;;;;20.08;84.00;97222.59;4878698;29;20407;-86
2023/10/13 12:30:13;;;;;;;1.35;0.63;;;;;;;20.12;81.55;97228.88;4878436;29;20059;-86
2023/10/13 12:33:08;;;;;;;0.65;0.63;;;;;;;20.92;81.50;97246.19;4878379;29;20043;-86
2023/10/13 12:36:30;;;;;;;1.10;0.80;;;;;;;21.00;80.89;97241.97;4874579;29;20073;-85
2023/10/13 12:54:19;;;;;;;0.90;0.80;;;;;;;19.36;81.02;97245.38;4877701;29;20036;-85
2023/10/13 12:57:08;;;;;;;1.40;0.60;;;;;;;18.98;82.44;97256.97;4882246;29;20052;-88
2023/10/13 12:59:56;;;;;;;1.92;0.88;;;;;;;19.13;79.92;97243.41;4877354;29;20052;-86
2023/10/13 13:02:41;;;;;;;2.30;0.88;;;;;;;21.08;75.22;97272.44;4878968;29;20518;-90
2023/10/13 13:05:28;;;;;;;1.50;0.90;;;;;;;21.26;73.21;97263.44;4880652;29;20096;-88
2023/10/13 13:08:21;;;;;;;3.17;1.15;;;;;;;21.29;71.71;97255.91;4882651;29;20095;-88
2023/10/13 13:11:06;;;;;;;3.17;1.70;;;;;;;20.85;71.78;97259.16;4877405;29;20128;-88
2023/10/13 13:13:51;;;;;;;4.05;1.20;;;;;;;20.18;72.53;97258.06;4880089;29;20052;-87
2023/10/13 13:16:38;;;;;;;5.97;1.48;;;;;;;19.58;78.23;97265.16;4880008;29;20518;-88
2023/10/13 13:19:25;;;;;;;1.30;1.20;;;;;;;19.60;78.46;97255.81;4879497;29;20051;-88
2023/10/13 13:22:12;;;;;;;1.30;1.15;;;;;;;19.30;79.21;97243.91;4874433;29;20048;-89
2023/10/13 13:24:56;;;;;;;2.40;1.20;;;;;;;19.33;79.60;97254.72;4879452;29;20407;-90
2023/10/13 13:27:41;;;;;;;3.20;1.40;;;;;;;18.49;81.63;97267.09;4880313;29;20488;-88
2023/10/13 13:30:32;;;;;;;4.70;1.50;;;;;;;18.86;80.88;97281.34;4875897;29;20117;-90
2023/10/13 13:33:23;;;;;;;4.25;1.40;;;;;;;18.51;88.71;97283.53;4874922;29;20048;-89
2023/10/13 13:36:13;;;;;;;3.03;1.30;;;;;;;19.23;83.23;97269.00;4879221;29;20502;-90
2023/10/13 13:39:00;;;;;;;2.00;1.33;;;;;;;19.66;80.23;97267.16;4880228;29;20044;-86
2023/10/13 13:41:44;;;;;;;2.90;1.50;;;;;;;18.45;80.56;97284.66;4881421;29;20052;-89
2023/10/13 13:44:35;;;;;;;2.33;1.50;;;;;;;19.38;79.64;97275.13;4877297;29;20483;-89
2023/10/13 13:47:19;;;;;;;4.82;1.40;;;;;;;18.98;80.25;97279.03;4877456;29;20155;-89
2023/10/13 13:50:14;;;;;;;3.42;1.80;;;;;;;18.58;82.81;97277.84;4885776;29;20121;-87
2023/10/13 13:53:01;;;;;;;2.38;1.60;;;;;;;18.87;80.97;97272.31;4885442;29;20067;-90
2023/10/13 13:55:45;;;;;;;6.60;1.85;;;;;;;18.62;81.41;97295.53;4878490;29;20117;-88
2023/10/13 13:58:30;;;;;;;3.85;1.90;;;;;;;18.34;87.19;97313.25;4881344;29;20044;-89
2023/10/13 14:01:18;;;;;;;9.40;3.53;;;;;;;17.75;86.75;97303.63;4884234;29;20056;-82
2023/10/13 14:04:06;;;;;;;7.47;2.83;;;;;;;18.39;84.63;97279.44;4877144;29;20083;-89
2023/10/13 14:06:50;;;;;;;6.13;2.70;;;;;;;18.75;83.03;97280.72;4877023;29;20261;-90
2023/10/13 14:09:40;;;;;;;3.92;2.50;;;;;;;18.03;84.56;97266.66;4885253;29;20104;-89
2023/10/13 14:12:41;;;;;;;7.05;2.13;;;;;;;18.24;84.73;97266.38;4882542;29;20128;-90
2023/10/13 14:15:25;;;;;;;5.15;2.22;;;;;;;18.77;83.93;97278.59;4884250;29;20079;-90
2023/10/13 14:18:14;;;;;;;4.43;2.22;;;;;;;18.78;83.05;97282.81;4883934;29;20048;-89
2023/10/13 14:21:03;;;;;;;4.30;2.28;;;;;;;18.40;83.73;97280.22;4883194;29;20052;-89
2023/10/13 14:23:49;;;;;;;4.63;2.00;;;;;;;18.75;83.01;97306.53;4883991;29;20040;-87
2023/10/13 14:26:35;;;;;;;5.90;2.90;;;;;;;18.32;83.18;97268.41;4877637;29;20103;-85
2023/10/13 14:29:19;;;;;;;4.95;2.28;;;;;;;18.15;83.38;97311.38;4886795;29;20148;-83
2023/10/13 14:32:04;;;;;;;5.65;1.92;;;;;;;18.39;82.37;97306.00;4876529;29;20161;-84
2023/10/13 14:34:53;;;;;;;10.20;3.15;;;;;;;18.31;82.47;97319.94;4875093;29;20498;-83
2023/10/13 14:37:38;;;;;;;10.80;2.72;;;;;;;17.19;81.65;97308.50;4873897;29;20452;-84
2023/10/13 14:40:22;;;;;;;11.02;2.67;;;;;;;18.06;80.31;97303.25;4879031;29;20105;-83
2023/10/13 14:43:08;;;;;;;8.75;2.80;;;;;;;18.40;80.61;97304.91;4873720;29;20048;-83
2023/10/13 14:45:52;;;;;;;7.88;2.40;;;;;;;18.39;79.97;97310.53;4872905;29;20056;-82
2023/10/13 14:48:38;;;;;;;8.82;2.20;;;;;;;19.07;78.56;97318.25;4874313;29;20108;-82
2023/10/13 14:51:25;;;;;;;9.20;2.58;;;;;;;18.27;78.40;97326.88;4874650;29;20055;-83
2023/10/13 14:54:09;;;;;;;12.80;2.80;;;;;;;18.87;77.86;97336.09;4873104;29;20494;-83
2023/10/13 14:56:54;;;;;;;8.38;2.75;;;;;;;19.21;76.71;97342.22;4869036;29;20113;-83
2023/10/13 14:59:39;;;;;;;7.55;2.35;;;;;;;19.11;75.90;97337.88;4877743;29;20502;-82
2023/10/13 15:02:23;;;;;;;13.15;2.60;;;;;;;19.05;75.65;97331.84;4874699;29;20060;-83
2023/10/13 15:05:07;;;;;;;6.60;3.40;;;;;;;18.52;74.51;97343.53;4876666;29;20104;-82
2023/10/13 15:07:51;;;;;;;8.80;2.42;;;;;;;18.77;74.94;97362.84;4875479;29;20048;-83
2023/10/13 15:10:36;;;;;;;13.98;3.30;;;;;;;18.15;75.06;97358.41;4856814;29;20082;-82
2023/10/13 15:13:22;;;;;;;7.53;2.00;;;;;;;18.44;74.60;97365.44;4873581;29;20520;-82
2023/10/13 15:16:22;;;;;;;8.77;2.60;;;;;;;18.45;73.85;97329.81;4877418;29;20061;-85
2023/10/13 15:19:06;;;;;;;9.20;2.70;;;;;;;18.27;73.56;97345.47;4876456;29;20729;-86
2023/10/13 15:21:52;;;;;;;14.85;3.88;;;;;;;18.26;73.21;97346.53;4873703;29;20097;-81
2023/10/13 15:24:45;;;;;;;10.57;2.97;;;;;;;17.82;74.13;97373.06;4879308;29;20097;-81
2023/10/13 15:27:29;;;;;;;14.48;5.43;;;;;;;18.38;72.88;97330.97;4874294;29;20097;-78
2023/10/13 15:30:23;;;;;;;13.25;3.33;;;;;;;18.07;72.49;97352.63;4872343;29;20513;-80
2023/10/13 15:33:08;;;;;;;15.57;3.55;;;;;;;18.59;72.07;97353.81;4875736;29;20052;-81
2023/10/13 15:35:53;;;;;;;17.38;3.47;;;;;;;18.05;71.83;97370.72;4872532;29;20488;-80
2023/10/13 15:38:37;;;;;;;12.88;3.80;;;;;;;17.39;73.61;97330.56;4874968;29;20123;-82
2023/10/13 15:41:22;;;;;;;16.15;4.15;;;;;;;18.74;71.61;97342.94;4875130;29;20112;-83